Aeroporto :
LOGIN :

Iscrizione | Disclaimer

   EN    FR    IT 

 










Sommario :    VFR   VFR Marginale   IFR   IFR Intensivo   IFR Molto Intensivo
Visibilità : 
Base nubi : 
>= 8 km
>= 3000ft
5 / 8 km
1000 / 3000 ft
1500m / 5 km
500 / 1000 ft
800 / 1500m
200 / 500 ft
< 800m
< 200 ft
Simboli :   Temporali  Nebbia  Neve Forte  Precipitazioni Forti  Vento > 20 kt
SIGMETs :   Varie  Temporali  Ghiacco  Turbolenza  Onda orograficha  Ceneri Vulcaniche







- Altitudine del aeroporto : 124 ft
- Codice IATA : AVN
- Carte del aeroporto


LFMV - Avignon Caumont

ULTIMO METAR :
  • 210400Z AUTO 32012KT CAVOK 14/10 Q1011 NOSIG

METARs OBSOLETI :
  • 210330Z AUTO 33014KT CAVOK 14/10 Q1011 NOSIG
  • 210300Z AUTO 33015KT CAVOK 15/10 Q1011 BECMG 35010G20KT
  • 210230Z AUTO 34015G26KT CAVOK 15/10 Q1011
  • 210200Z AUTO 34010KT CAVOK 14/10 Q1011
  • 210130Z AUTO 33011KT CAVOK 14/10 Q1011

TAF TAF LFMV
Valido dal 21 a 03 ore il 22 a 03 ore UTC


210200Z 2103/2203 35010G20KT CAVOK
TEMPO 2106/2203 35020G30KT
ATIS : +33 4 90 84 32 84
Nessun NOTAM noto per questo aeroporto.
1 SIGMET conosciuto per la FIR Marseille (LFMM) :
 
Forte onda orograficha
LFMM SIGMET 1 VALID 210400/210800 LFPW
LFMM MARSEILLE FIR/UIR SEV MTW FCST E OF E00900 SFC/FL100 STNR NC=



MetMap, La meteo Aeronautica in un colpo d'occhio ! - Copyright ORBIFLY Dicembre 2007 - Disclaimer

ORBIFLY MET'MAP TEAM :

Programmazione e sviluppo : Alexandra Zaïnal
Concezione e sviluppo : Baudouin d'Aumeries
Co-Programmazione e sviluppo : Marc-Olivier Méhu
Supporto tecnico e logistico : Manuel Goepfert
Aiuto per la traduzione : Arnaldo La Scala

Contatto : metmap@orbifly.com




FONTI E CREDITI :

   NOAA